createdAt,value
2022-08-09T00:00:00.802Z,4.50
2022-08-09T00:02:49.674Z,4.85
2022-08-09T00:06:15.443Z,4.03
2022-08-09T00:08:31.614Z,4.25
2022-08-09T00:11:00.193Z,4.43
2022-08-09T00:13:31.677Z,4.45
2022-08-09T00:16:02.769Z,4.35
2022-08-09T00:18:35.022Z,4.45
2022-08-09T00:21:08.684Z,4.53
2022-08-09T00:23:58.221Z,5.03
2022-08-09T00:26:29.861Z,4.22
2022-08-09T00:29:03.049Z,4.50
2022-08-09T00:31:59.295Z,4.75
2022-08-09T00:34:21.435Z,4.70
2022-08-09T00:36:52.045Z,4.47
2022-08-09T00:40:14.129Z,4.25
2022-08-09T00:44:14.579Z,4.53
2022-08-09T00:44:59.912Z,4.72
2022-08-09T00:47:35.932Z,4.57
2022-08-09T00:50:14.248Z,4.82
2022-08-09T00:52:45.196Z,4.88
2022-08-09T00:55:32.657Z,4.28
2022-08-09T00:58:02.713Z,4.32
2022-08-09T01:00:36.894Z,4.00
2022-08-09T01:03:16.055Z,4.53
2022-08-09T01:05:54.787Z,4.35
2022-08-09T01:11:19.078Z,4.63
2022-08-09T01:13:59.971Z,5.15
2022-08-09T01:16:36.548Z,4.60
2022-08-09T01:19:16.989Z,4.53
2022-08-09T01:22:29.424Z,4.80
2022-08-09T01:25:14.517Z,4.82
2022-08-09T01:27:53.461Z,4.93
2022-08-09T01:30:35.506Z,5.07
2022-08-09T01:33:19.730Z,4.75
2022-08-09T01:35:52.667Z,4.57
2022-08-09T01:38:25.289Z,4.80
2022-08-09T01:41:04.887Z,4.95
2022-08-09T01:43:50.291Z,4.97
2022-08-09T01:46:25.305Z,5.28
2022-08-09T01:48:59.771Z,4.97
2022-08-09T01:51:33.028Z,5.35
2022-08-09T01:54:04.169Z,5.03
2022-08-09T01:56:34.700Z,5.10
2022-08-09T01:59:10.618Z,5.22
2022-08-09T02:02:00.293Z,4.97
2022-08-09T02:04:33.034Z,5.00
2022-08-09T02:08:35.299Z,4.82
2022-08-09T02:10:09.005Z,4.63
2022-08-09T02:12:40.180Z,4.65
2022-08-09T02:15:16.704Z,5.70
2022-08-09T02:18:00.799Z,5.30
2022-08-09T02:20:45.000Z,4.80
2022-08-09T02:23:19.224Z,4.68
2022-08-09T02:26:02.534Z,5.20
2022-08-09T02:28:35.677Z,5.32
2022-08-09T02:31:08.879Z,5.00
2022-08-09T02:34:07.422Z,5.55
2022-08-09T02:36:33.316Z,5.65
2022-08-09T02:39:05.904Z,5.10
2022-08-09T02:41:39.692Z,5.68
2022-08-09T02:44:29.116Z,6.43
2022-08-09T02:47:04.498Z,5.40
2022-08-09T02:49:38.285Z,5.45
2022-08-09T02:52:10.883Z,5.65
2022-08-09T02:54:54.704Z,5.85
2022-08-09T02:57:28.076Z,6.28
2022-08-09T03:00:11.417Z,6.05
2022-08-09T03:02:59.835Z,5.80
2022-08-09T03:05:34.602Z,5.95
2022-08-09T03:08:05.817Z,5.60
2022-08-09T03:10:37.322Z,5.72
2022-08-09T03:13:08.673Z,6.22
2022-08-09T03:16:06.667Z,6.18
2022-08-09T03:18:32.014Z,6.13
2022-08-09T03:21:03.079Z,6.40
2022-08-09T03:23:32.151Z,5.82
2022-08-09T03:26:03.531Z,6.78
2022-08-09T03:28:36.076Z,6.10
2022-08-09T03:31:10.407Z,6.78
2022-08-09T03:33:53.529Z,6.70
2022-08-09T03:36:27.544Z,6.72
2022-08-09T03:38:58.154Z,6.38
2022-08-09T03:41:29.891Z,6.55
2022-08-09T03:44:15.505Z,6.20
2022-08-09T03:46:46.413Z,6.43
2022-08-09T03:49:19.210Z,5.88
2022-08-09T03:51:58.397Z,6.60
2022-08-09T03:54:32.357Z,6.00
2022-08-09T03:57:04.494Z,6.50
2022-08-09T03:59:54.530Z,6.35
2022-08-09T04:02:28.233Z,7.30
2022-08-09T04:05:06.352Z,6.68
2022-08-09T04:07:53.214Z,6.70
2022-08-09T04:10:29.745Z,6.82
2022-08-09T04:13:03.756Z,6.70
2022-08-09T04:16:17.049Z,7.10
2022-08-09T04:18:22.258Z,7.07
2022-08-09T04:20:55.656Z,7.30
2022-08-09T04:23:25.835Z,7.05
2022-08-09T04:25:55.318Z,6.40
2022-08-09T04:28:33.163Z,7.07
2022-08-09T04:31:09.192Z,7.03
2022-08-09T04:33:47.248Z,7.82
2022-08-09T04:36:25.570Z,7.03
2022-08-09T04:38:54.911Z,6.70
2022-08-09T04:41:24.521Z,7.20
2022-08-09T04:44:07.222Z,7.15
2022-08-09T04:46:58.078Z,7.53
2022-08-09T04:49:52.308Z,7.47
2022-08-09T04:52:26.925Z,7.32
2022-08-09T04:55:04.151Z,8.48
2022-08-09T04:57:54.176Z,7.75
2022-08-09T05:00:34.198Z,7.43
2022-08-09T05:03:30.575Z,7.47
2022-08-09T05:06:04.447Z,7.65
2022-08-09T05:08:37.161Z,7.43
2022-08-09T05:11:08.109Z,6.88
2022-08-09T05:13:38.795Z,7.15
2022-08-09T05:16:10.056Z,7.30
2022-08-09T05:18:58.779Z,7.93
2022-08-09T05:21:46.827Z,8.38
2022-08-09T05:24:17.517Z,7.03
2022-08-09T05:26:47.666Z,7.25
2022-08-09T05:29:21.247Z,7.40
2022-08-09T05:31:57.619Z,8.27
2022-08-09T05:34:31.512Z,8.13
2022-08-09T05:37:06.008Z,7.53
2022-08-09T05:39:43.911Z,7.50
2022-08-09T05:42:17.692Z,7.95
2022-08-09T05:44:52.098Z,7.90
2022-08-09T05:47:22.954Z,7.05
2022-08-09T05:50:24.184Z,7.65
2022-08-09T05:52:41.751Z,7.32
2022-08-09T05:55:20.786Z,7.65
2022-08-09T05:57:57.161Z,7.40
2022-08-09T06:00:29.035Z,7.25
2022-08-09T06:02:58.850Z,8.02
2022-08-09T06:05:31.295Z,7.55
2022-08-09T06:08:24.081Z,7.53
2022-08-09T06:10:57.097Z,7.63
2022-08-09T06:13:28.693Z,7.93
2022-08-09T06:16:04.673Z,7.65
2022-08-09T06:18:34.862Z,7.53
2022-08-09T06:21:04.231Z,8.00
2022-08-09T06:23:58.235Z,7.72
2022-08-09T06:26:28.428Z,7.90
2022-08-09T06:29:01.145Z,7.78
2022-08-09T06:31:39.218Z,8.52
2022-08-09T06:34:09.352Z,7.18
2022-08-09T06:39:13.947Z,7.47
2022-08-09T06:42:06.370Z,7.05
2022-08-09T06:44:33.630Z,7.80
2022-08-09T06:47:04.294Z,7.75
2022-08-09T06:50:11.967Z,7.18
2022-08-09T06:54:55.420Z,7.80
2022-08-09T06:58:01.133Z,7.07
2022-08-09T07:00:55.962Z,7.18
2022-08-09T07:03:05.929Z,7.07
2022-08-09T07:06:02.369Z,6.85
2022-08-09T07:08:24.804Z,7.10
2022-08-09T07:10:54.061Z,6.40
2022-08-09T07:13:28.151Z,7.15
2022-08-09T07:16:39.414Z,6.95
2022-08-09T07:18:47.581Z,6.93
2022-08-09T07:21:19.995Z,7.30
2022-08-09T07:23:58.070Z,7.70
2022-08-09T07:26:27.597Z,6.65
2022-08-09T07:29:08.710Z,6.45
2022-08-09T07:31:45.293Z,6.90
2022-08-09T07:34:20.352Z,7.13
2022-08-09T07:36:50.171Z,7.07
2022-08-09T07:39:42.160Z,6.82
2022-08-09T07:42:11.720Z,7.07
2022-08-09T07:44:53.152Z,7.05
2022-08-09T07:47:23.586Z,6.82
2022-08-09T07:50:08.382Z,7.05
2022-08-09T07:52:38.591Z,6.95
2022-08-09T07:55:09.644Z,6.82
2022-08-09T07:57:47.176Z,6.85
2022-08-09T08:00:20.463Z,6.80
2022-08-09T08:03:08.450Z,6.40
2022-08-09T08:05:39.297Z,7.13
2022-08-09T08:09:02.146Z,6.72
2022-08-09T08:12:09.419Z,6.18
2022-08-09T08:14:04.756Z,6.68
2022-08-09T08:17:07.301Z,6.28
2022-08-09T08:19:36.902Z,6.10
2022-08-09T08:22:06.293Z,6.80
2022-08-09T08:24:40.188Z,6.68
2022-08-09T08:27:16.483Z,6.60
2022-08-09T08:29:50.094Z,6.30
2022-08-09T08:32:28.732Z,6.53
2022-08-09T08:34:58.629Z,7.18
2022-08-09T08:37:41.095Z,7.20
2022-08-09T08:40:12.299Z,7.10
2022-08-09T08:42:43.375Z,7.15
2022-08-09T08:45:18.849Z,7.45
2022-08-09T08:48:10.142Z,6.80
2022-08-09T08:50:39.924Z,7.25
2022-08-09T08:53:22.002Z,6.55
2022-08-09T08:55:52.666Z,7.35
2022-08-09T08:58:27.207Z,7.10
2022-08-09T09:00:58.244Z,6.82
2022-08-09T09:03:37.934Z,7.57
2022-08-09T09:06:09.608Z,7.78
2022-08-09T09:08:42.398Z,6.90
2022-08-09T09:11:13.897Z,6.65
2022-08-09T09:13:57.406Z,6.95
2022-08-09T09:16:32.604Z,6.75
2022-08-09T09:19:37.021Z,6.88
2022-08-09T09:22:05.193Z,7.30
2022-08-09T09:27:05.299Z,6.93
2022-08-09T09:30:05.336Z,6.70
2022-08-09T09:32:34.271Z,6.28
2022-08-09T09:35:09.612Z,7.13
2022-08-09T09:37:40.237Z,6.45
2022-08-09T09:40:11.789Z,6.85
2022-08-09T09:42:43.017Z,6.32
2022-08-09T09:45:26.567Z,6.90
2022-08-09T09:47:59.588Z,6.38
2022-08-09T09:50:50.639Z,6.90
2022-08-09T09:53:25.087Z,6.90
2022-08-09T09:56:20.060Z,7.10
2022-08-09T09:59:00.641Z,6.60
2022-08-09T10:04:09.860Z,6.70
2022-08-09T10:06:47.114Z,6.22
2022-08-09T10:09:22.383Z,6.93
2022-08-09T10:12:14.243Z,6.32
2022-08-09T10:14:48.691Z,6.75
2022-08-09T10:17:50.181Z,7.13
2022-08-09T10:20:31.857Z,6.43
2022-08-09T10:23:17.370Z,6.35
2022-08-09T10:26:06.553Z,6.28
2022-08-09T10:28:39.901Z,7.20
2022-08-09T10:34:08.942Z,6.63
2022-08-09T10:36:45.136Z,7.45
2022-08-09T10:39:20.060Z,7.03
2022-08-09T10:41:49.575Z,7.05
2022-08-09T10:44:23.229Z,7.20
2022-08-09T10:48:12.275Z,6.50
2022-08-09T10:50:10.006Z,6.85
2022-08-09T10:53:10.583Z,6.65
2022-08-09T10:55:58.147Z,6.75
2022-08-09T10:58:33.856Z,6.78
2022-08-09T11:03:02.788Z,6.57
2022-08-09T11:04:30.565Z,6.82
2022-08-09T11:07:58.005Z,7.00
2022-08-09T11:11:00.913Z,6.30
2022-08-09T11:13:49.855Z,6.37
2022-08-09T11:16:37.878Z,6.10
2022-08-09T11:19:11.359Z,6.07
2022-08-09T11:22:05.263Z,6.50
2022-08-09T11:25:17.178Z,6.88
2022-08-09T11:27:52.901Z,6.18
2022-08-09T11:30:37.986Z,5.60
2022-08-09T11:33:13.205Z,6.20
2022-08-09T11:35:49.901Z,5.65
2022-08-09T11:38:32.405Z,5.88
2022-08-09T11:41:38.055Z,5.88
2022-08-09T11:44:10.754Z,5.90
2022-08-09T11:47:01.069Z,5.70
2022-08-09T11:50:55.202Z,5.68
2022-08-09T11:53:58.045Z,5.18
2022-08-09T11:56:34.426Z,5.30
2022-08-09T11:59:29.874Z,5.60
2022-08-09T12:02:34.071Z,5.10
2022-08-09T12:04:58.174Z,5.22
2022-08-09T12:07:41.150Z,5.50
2022-08-09T12:10:14.092Z,5.13
2022-08-09T12:14:06.603Z,5.00
2022-08-09T12:15:52.870Z,4.93
2022-08-09T12:18:29.590Z,4.90
2022-08-09T12:21:00.697Z,4.80
2022-08-09T12:23:58.117Z,5.03
2022-08-09T12:26:25.781Z,4.82
2022-08-09T12:29:15.213Z,4.45
2022-08-09T12:32:02.700Z,4.95
2022-08-09T12:34:35.995Z,4.72
2022-08-09T12:37:21.381Z,5.05
2022-08-09T12:40:02.118Z,4.90
2022-08-09T12:42:31.763Z,4.47
2022-08-09T12:45:00.908Z,4.30
2022-08-09T12:47:40.682Z,4.80
2022-08-09T12:50:20.015Z,4.60
2022-08-09T12:53:09.350Z,4.43
2022-08-09T12:56:13.712Z,4.63
2022-08-09T13:00:58.935Z,4.45
2022-08-09T13:03:52.582Z,4.18
2022-08-09T13:06:34.031Z,4.35
2022-08-09T13:09:08.513Z,4.50
2022-08-09T13:11:42.264Z,4.45
2022-08-09T13:14:43.996Z,4.10
2022-08-09T13:17:04.182Z,4.38
2022-08-09T13:20:10.038Z,4.15
2022-08-09T13:22:37.623Z,4.10
2022-08-09T13:25:16.565Z,4.60
2022-08-09T13:30:49.944Z,4.10
2022-08-09T13:33:24.074Z,4.13
2022-08-09T13:36:24.162Z,4.03
2022-08-09T13:38:55.720Z,4.30
2022-08-09T13:41:57.404Z,3.85
2022-08-09T13:47:29.520Z,3.95
2022-08-09T13:49:39.552Z,3.75
2022-08-09T13:52:27.481Z,3.65
2022-08-09T13:54:59.817Z,4.03
2022-08-09T13:57:35.401Z,3.80
2022-08-09T14:00:09.453Z,4.03
2022-08-09T14:03:02.191Z,3.58
2022-08-09T14:05:58.992Z,3.80
2022-08-09T14:10:52.965Z,3.80
2022-08-09T14:14:15.234Z,3.80
2022-08-09T14:16:15.330Z,3.50
2022-08-09T14:18:49.647Z,3.28
2022-08-09T14:21:22.633Z,3.50
2022-08-09T14:23:56.911Z,3.70
2022-08-09T14:26:30.469Z,3.70
2022-08-09T14:29:03.694Z,3.42
2022-08-09T14:31:50.111Z,3.78
2022-08-09T14:34:31.537Z,4.32
2022-08-09T14:37:06.023Z,3.80
2022-08-09T14:39:45.355Z,3.38
2022-08-09T14:42:39.302Z,3.50
2022-08-09T14:46:39.755Z,3.60
2022-08-09T14:47:59.709Z,3.78
2022-08-09T14:50:31.274Z,3.80
2022-08-09T14:53:01.063Z,3.72
2022-08-09T14:55:32.981Z,3.60
2022-08-09T14:58:04.540Z,4.88
2022-08-09T15:00:36.065Z,3.80
2022-08-09T15:03:07.034Z,3.60
2022-08-09T15:05:36.756Z,3.83
2022-08-09T15:08:06.077Z,3.80
2022-08-09T15:10:40.799Z,3.83
2022-08-09T15:13:09.762Z,3.33
2022-08-09T15:18:14.183Z,3.72
2022-08-09T15:21:58.615Z,3.80
2022-08-09T15:24:09.250Z,3.72
2022-08-09T15:26:31.167Z,3.90
2022-08-09T15:29:04.556Z,3.95
2022-08-09T15:31:41.698Z,3.85
2022-08-09T15:34:33.247Z,4.18
2022-08-09T15:37:04.218Z,4.32
2022-08-09T15:39:35.100Z,4.07
2022-08-09T15:42:24.073Z,4.82
2022-08-09T15:44:52.863Z,4.32
2022-08-09T15:47:47.093Z,4.38
2022-08-09T15:50:14.163Z,4.32
2022-08-09T15:52:54.977Z,4.15
2022-08-09T15:55:34.459Z,4.25
2022-08-09T15:58:26.763Z,4.47
2022-08-09T16:00:56.682Z,3.90
2022-08-09T16:03:29.652Z,5.00
2022-08-09T16:06:29.358Z,6.13
2022-08-09T16:09:01.245Z,4.90
2022-08-09T16:11:34.031Z,4.15
2022-08-09T16:14:07.971Z,6.00
2022-08-09T16:16:39.099Z,4.70
2022-08-09T16:19:13.431Z,5.57
2022-08-09T16:21:48.770Z,5.70
2022-08-09T16:24:33.162Z,5.68
2022-08-09T16:27:05.307Z,6.55
2022-08-09T16:29:36.726Z,5.63
2022-08-09T16:32:18.040Z,5.40
2022-08-09T16:34:57.822Z,5.60
2022-08-09T16:37:53.420Z,5.63
2022-08-09T16:40:29.480Z,4.97
2022-08-09T16:43:08.436Z,6.25
2022-08-09T16:45:44.360Z,5.32
2022-08-09T16:48:39.114Z,5.43
2022-08-09T16:54:08.946Z,5.95
2022-08-09T16:56:31.942Z,5.60
2022-08-09T16:59:01.647Z,5.43
2022-08-09T17:01:37.138Z,5.85
2022-08-09T17:04:08.301Z,6.32
2022-08-09T17:07:10.087Z,5.53
2022-08-09T17:09:44.947Z,5.47
2022-08-09T17:14:47.960Z,5.80
2022-08-09T17:17:26.228Z,5.80
2022-08-09T17:20:29.797Z,5.90
2022-08-09T17:22:51.624Z,6.35
2022-08-09T17:25:23.534Z,6.80
2022-08-09T17:27:54.680Z,6.25
2022-08-09T17:30:26.311Z,6.07
2022-08-09T17:33:05.296Z,5.90
2022-08-09T17:35:47.126Z,6.03
2022-08-09T17:38:30.442Z,5.47
2022-08-09T17:41:02.205Z,5.38
2022-08-09T17:43:37.029Z,4.70
2022-08-09T17:46:09.392Z,4.97
2022-08-09T17:48:52.013Z,4.55
2022-08-09T17:51:23.135Z,4.68
2022-08-09T17:53:55.570Z,4.35
2022-08-09T17:56:28.733Z,4.72
2022-08-09T17:59:00.131Z,4.72
2022-08-09T18:02:03.899Z,4.28
2022-08-09T18:04:21.583Z,4.28
2022-08-09T18:06:54.758Z,4.00
2022-08-09T18:09:40.107Z,3.95
2022-08-09T18:12:17.324Z,3.78
2022-08-09T18:14:53.827Z,3.40
2022-08-09T18:17:27.599Z,3.35
2022-08-09T18:20:54.896Z,2.72
2022-08-09T18:23:07.456Z,3.22
2022-08-09T18:25:52.365Z,3.10
2022-08-09T18:30:34.455Z,2.90
2022-08-09T18:31:12.945Z,3.10
2022-08-09T18:33:52.954Z,2.95
2022-08-09T18:36:25.773Z,2.90
2022-08-09T18:39:02.537Z,2.95
2022-08-09T18:41:34.674Z,2.75
2022-08-09T18:44:13.693Z,3.13
2022-08-09T18:46:46.759Z,2.60
2022-08-09T18:49:23.615Z,2.80
2022-08-09T18:51:55.132Z,2.47
2022-08-09T18:54:29.558Z,2.90
2022-08-09T18:57:06.241Z,2.70
2022-08-09T18:59:48.680Z,2.70
2022-08-09T19:02:30.675Z,2.25
2022-08-09T19:05:04.114Z,2.40
2022-08-09T19:08:03.751Z,2.72
2022-08-09T19:10:40.325Z,2.30
2022-08-09T19:13:19.841Z,2.33
2022-08-09T19:15:56.274Z,2.60
2022-08-09T19:18:35.048Z,2.40
2022-08-09T19:21:10.420Z,2.53
2022-08-09T19:24:33.390Z,2.42
2022-08-09T19:26:34.745Z,2.50
2022-08-09T19:29:17.947Z,2.30
2022-08-09T19:31:51.424Z,2.20
2022-08-09T19:34:24.592Z,2.60
2022-08-09T19:36:57.606Z,2.40
2022-08-09T19:40:02.635Z,2.70
2022-08-09T19:42:19.550Z,2.15
2022-08-09T19:44:51.134Z,2.33
2022-08-09T19:47:23.220Z,2.17
2022-08-09T19:50:10.431Z,2.10
2022-08-09T19:52:51.549Z,2.40
2022-08-09T19:58:15.927Z,2.20
2022-08-09T20:00:47.357Z,2.08
2022-08-09T20:04:10.092Z,2.08
2022-08-09T20:06:22.149Z,2.08
2022-08-09T20:08:55.482Z,2.58
2022-08-09T20:11:42.854Z,2.00
2022-08-09T20:14:17.686Z,1.83
2022-08-09T20:16:53.378Z,2.20
2022-08-09T20:19:49.002Z,1.92
2022-08-09T20:22:14.037Z,2.83
2022-08-09T20:24:53.965Z,1.88
2022-08-09T20:27:24.774Z,1.90
2022-08-09T20:29:59.005Z,2.30
2022-08-09T20:32:33.217Z,2.20
2022-08-09T20:35:15.997Z,2.00
2022-08-09T20:38:21.596Z,2.17
2022-08-09T20:43:12.355Z,1.98
2022-08-09T20:46:00.492Z,2.05
2022-08-09T20:51:06.880Z,2.10
2022-08-09T20:56:21.182Z,2.22
2022-08-09T20:58:54.502Z,2.17
2022-08-09T21:01:34.113Z,2.30
2022-08-09T21:05:52.967Z,1.60
2022-08-09T21:07:12.024Z,1.73
2022-08-09T21:09:45.804Z,1.80
2022-08-09T21:15:15.863Z,1.85
2022-08-09T21:18:21.068Z,1.55
2022-08-09T21:20:35.828Z,1.92
2022-08-09T21:23:04.916Z,1.80
2022-08-09T21:25:55.386Z,1.95
2022-08-09T21:28:35.172Z,1.85
2022-08-09T21:31:17.925Z,2.40
2022-08-09T21:33:56.631Z,1.60
2022-08-09T21:36:28.852Z,1.60
2022-08-09T21:38:59.241Z,1.95
2022-08-09T21:42:05.854Z,1.92
2022-08-09T21:44:34.045Z,1.60
2022-08-09T21:47:08.753Z,1.90
2022-08-09T21:49:40.149Z,1.70
2022-08-09T21:52:15.010Z,1.83
2022-08-09T21:54:50.860Z,1.67
2022-08-09T21:57:38.357Z,1.77
2022-08-09T22:00:26.051Z,1.70
2022-08-09T22:02:59.491Z,1.90
2022-08-09T22:05:35.800Z,2.00
2022-08-09T22:08:13.618Z,1.95
2022-08-09T22:11:05.083Z,1.75
2022-08-09T22:13:34.781Z,1.80
2022-08-09T22:16:07.868Z,1.90
2022-08-09T22:18:52.868Z,1.73
2022-08-09T22:21:27.268Z,1.85
2022-08-09T22:23:58.618Z,1.50
2022-08-09T22:26:34.830Z,1.80
2022-08-09T22:29:10.034Z,1.52
2022-08-09T22:31:44.184Z,2.10
2022-08-09T22:34:15.150Z,2.03
2022-08-09T22:36:46.225Z,1.83
2022-08-09T22:39:47.110Z,1.60
2022-08-09T22:42:11.881Z,1.73
2022-08-09T22:44:49.351Z,1.40
2022-08-09T22:48:12.250Z,1.65
2022-08-09T22:50:19.607Z,1.63
2022-08-09T22:52:54.662Z,2.35
2022-08-09T22:55:39.471Z,1.70
2022-08-09T22:58:20.226Z,1.77
2022-08-09T23:01:02.119Z,1.90
2022-08-09T23:04:05.576Z,1.63
2022-08-09T23:06:32.621Z,1.73
2022-08-09T23:09:06.166Z,1.75
2022-08-09T23:11:35.315Z,1.92
2022-08-09T23:14:09.775Z,1.55
2022-08-09T23:16:39.202Z,1.50
2022-08-09T23:19:07.884Z,1.60
2022-08-09T23:21:38.585Z,1.67
2022-08-09T23:24:09.289Z,1.63
2022-08-09T23:26:38.875Z,1.30
2022-08-09T23:29:11.685Z,1.83
2022-08-09T23:31:40.804Z,1.55
2022-08-09T23:36:39.533Z,1.58
2022-08-09T23:39:08.452Z,1.50
2022-08-09T23:44:06.230Z,1.42
2022-08-09T23:46:35.071Z,1.60
2022-08-09T23:49:04.382Z,1.80
2022-08-09T23:51:33.175Z,1.42
2022-08-09T23:54:03.672Z,1.48
2022-08-09T23:56:52.270Z,1.60
2022-08-09T23:59:22.830Z,1.58
